Fairbank, Illinois
Current Conditions -  °F | °C
As of 10:52 PM on Thursday 30 Oct 2014 (Local Time) from KMLI Reporting Station
Overcast Overcast  
Wind Chill:   Ceiling: 6000
Heat Index:   Visibility: 10mi
Dew Point:   Wind: 6mph
Humidity: 79%   Direction: 270°W
Pressure: 30.11"   Gusts: NA
Location:  41.4828°N, 90.1801°W
Report Text: KMLI 310352Z AUTO 27005KT 10SM BKN060 OVC075 08/04 A3011 RMK AO2 SLP199 T00780044
Loading
Personal Weather Stations






























Interactive Weather Map
Tropical Storm Tracking
New forecast layout! Learn more

10-Day Weather Forecast

Advertisements
Track Severe Weather on mobile